createdAt,value
2018-09-21T00:00:34.743Z,999.06
2018-09-21T00:01:41.408Z,999.08
2018-09-21T00:02:48.586Z,999.09
2018-09-21T00:04:58.640Z,999.05
2018-09-21T00:06:13.087Z,999.02
2018-09-21T00:07:08.077Z,999.00
2018-09-21T00:08:23.245Z,998.99
2018-09-21T00:09:26.122Z,998.99
2018-09-21T00:10:28.283Z,999.00
2018-09-21T00:11:44.166Z,998.97
2018-09-21T00:12:55.440Z,998.94
2018-09-21T00:14:04.154Z,998.88
2018-09-21T00:14:57.918Z,998.89
2018-09-21T00:15:53.727Z,998.87
2018-09-21T00:17:09.504Z,998.83
2018-09-21T00:18:14.534Z,998.84
2018-09-21T00:19:14.132Z,998.86
2018-09-21T00:20:22.133Z,998.81
2018-09-21T00:21:33.403Z,998.81
2018-09-21T00:22:33.822Z,998.77
2018-09-21T00:23:24.035Z,998.77
2018-09-21T00:24:38.757Z,998.72
2018-09-21T00:25:47.674Z,998.73
2018-09-21T00:26:51.166Z,998.71
2018-09-21T00:28:10.322Z,998.70
2018-09-21T00:30:02.781Z,998.64
2018-09-21T00:31:22.542Z,998.68
2018-09-21T00:32:34.420Z,998.64
2018-09-21T00:33:29.411Z,998.64
2018-09-21T00:35:34.958Z,998.58
2018-09-21T00:36:34.352Z,998.58
2018-09-21T00:37:52.794Z,998.55
2018-09-21T00:39:00.075Z,998.53
2018-09-21T00:40:09.402Z,998.48
2018-09-21T00:41:04.191Z,998.52
2018-09-21T00:42:03.377Z,998.48
2018-09-21T00:43:20.184Z,998.47
2018-09-21T00:44:24.286Z,998.47
2018-09-21T00:45:39.859Z,998.46
2018-09-21T00:46:25.839Z,998.43
2018-09-21T00:47:38.545Z,998.41
2018-09-21T00:48:45.825Z,998.39
2018-09-21T00:49:56.797Z,998.45
2018-09-21T00:50:48.925Z,998.41
2018-09-21T00:51:48.306Z,998.42
2018-09-21T00:53:10.026Z,998.39
2018-09-21T00:55:13.729Z,998.32
2018-09-21T00:56:28.692Z,998.36
2018-09-21T00:57:27.063Z,998.34
2018-09-21T00:58:26.045Z,998.31
2018-09-21T00:59:45.615Z,998.32
2018-09-21T01:00:37.532Z,998.33
2018-09-21T01:01:37.232Z,998.32
2018-09-21T01:02:49.124Z,998.25
2018-09-21T01:03:56.199Z,998.26
2018-09-21T01:05:01.533Z,998.27
2018-09-21T01:06:02.157Z,998.21
2018-09-21T01:07:17.833Z,998.20
2018-09-21T01:08:29.108Z,998.17
2018-09-21T01:09:25.836Z,998.19
2018-09-21T01:10:27.491Z,998.13
2018-09-21T01:12:50.540Z,998.16
2018-09-21T01:13:42.151Z,998.13
2018-09-21T01:16:10.535Z,998.14
2018-09-21T01:17:05.936Z,998.10
2018-09-21T01:18:13.219Z,998.09
2018-09-21T01:19:19.677Z,998.05
2018-09-21T01:22:27.278Z,997.91
2018-09-21T01:23:38.860Z,997.85
2018-09-21T01:24:40.007Z,997.83
2018-09-21T01:26:00.996Z,997.84
2018-09-21T01:26:58.959Z,997.80
2018-09-21T01:29:08.703Z,997.80
2018-09-21T01:30:21.213Z,997.75
2018-09-21T01:31:10.360Z,997.81
2018-09-21T01:32:18.766Z,997.79
2018-09-21T01:33:30.350Z,997.77
2018-09-21T01:34:37.417Z,997.76
2018-09-21T01:35:32.410Z,997.73
2018-09-21T01:37:57.720Z,997.71
2018-09-21T01:38:51.994Z,997.69
2018-09-21T01:40:11.253Z,997.67
2018-09-21T01:41:03.069Z,997.67
2018-09-21T01:42:16.081Z,997.71
2018-09-21T01:44:21.631Z,997.68
2018-09-21T01:45:22.464Z,997.63
2018-09-21T01:46:38.650Z,997.63
2018-09-21T01:47:47.365Z,997.63
2018-09-21T01:48:54.233Z,997.56
2018-09-21T01:49:46.870Z,997.60
2018-09-21T01:51:00.606Z,997.57
2018-09-21T01:53:13.428Z,997.62
2018-09-21T01:54:23.360Z,997.56
2018-09-21T01:55:23.881Z,997.50
2018-09-21T01:56:40.478Z,997.46
2018-09-21T01:58:41.622Z,997.41
2018-09-21T01:59:55.965Z,997.40
2018-09-21T02:00:48.032Z,997.40
2018-09-21T02:01:50.147Z,997.36
2018-09-21T02:03:05.721Z,997.31
2018-09-21T02:03:52.726Z,997.35
2018-09-21T02:05:03.384Z,997.28
2018-09-21T02:06:08.922Z,997.24
2018-09-21T02:07:22.959Z,997.23
2018-09-21T02:08:29.012Z,997.26
2018-09-21T02:09:34.457Z,997.21
2018-09-21T02:10:29.848Z,997.18
2018-09-21T02:11:41.731Z,997.21
2018-09-21T02:12:47.063Z,997.20
2018-09-21T02:13:49.839Z,997.19
2018-09-21T02:14:54.971Z,997.15
2018-09-21T02:16:11.976Z,997.10
2018-09-21T02:17:10.551Z,997.09
2018-09-21T02:18:10.970Z,997.14
2018-09-21T02:20:34.337Z,997.14
2018-09-21T02:21:31.889Z,997.11
2018-09-21T02:22:45.518Z,997.09
2018-09-21T02:24:47.079Z,997.07
2018-09-21T02:25:49.538Z,997.04
2018-09-21T02:26:51.492Z,997.03
2018-09-21T02:28:03.790Z,996.96
2018-09-21T02:29:25.099Z,996.93
2018-09-21T02:30:22.958Z,996.96
2018-09-21T02:31:31.056Z,996.96
2018-09-21T02:32:29.834Z,996.96
2018-09-21T02:33:35.167Z,996.94
2018-09-21T02:34:33.660Z,996.97
2018-09-21T02:35:58.634Z,996.96
2018-09-21T02:36:49.731Z,996.97
2018-09-21T02:37:59.676Z,996.88
2018-09-21T02:38:59.687Z,996.85
2018-09-21T02:41:24.037Z,996.73
2018-09-21T02:43:33.104Z,996.76
2018-09-21T02:44:21.649Z,996.69
2018-09-21T02:45:28.718Z,996.68
2018-09-21T02:46:35.995Z,996.64
2018-09-21T02:47:53.617Z,996.57
2018-09-21T02:48:51.440Z,996.51
2018-09-21T02:49:54.452Z,996.55
2018-09-21T02:51:09.118Z,996.46
2018-09-21T02:51:57.441Z,996.41
2018-09-21T02:53:00.622Z,996.38
2018-09-21T02:54:18.758Z,996.35
2018-09-21T02:56:28.812Z,996.28
2018-09-21T02:57:33.633Z,996.24
2018-09-21T02:58:46.851Z,996.28
2018-09-21T02:59:50.969Z,996.32
2018-09-21T03:00:51.815Z,996.18
2018-09-21T03:02:00.699Z,996.15
2018-09-21T03:02:58.565Z,996.15
2018-09-21T03:04:12.491Z,996.07
2018-09-21T03:05:16.052Z,996.05
2018-09-21T03:06:16.606Z,996.07
2018-09-21T03:07:25.010Z,996.01
2018-09-21T03:08:24.820Z,996.04
2018-09-21T03:09:38.347Z,996.00
2018-09-21T03:10:29.750Z,995.93
2018-09-21T03:11:53.824Z,995.90
2018-09-21T03:13:53.843Z,995.92
2018-09-21T03:15:01.020Z,995.88
2018-09-21T03:16:20.077Z,995.83
2018-09-21T03:19:41.304Z,995.83
2018-09-21T03:20:26.462Z,995.80
2018-09-21T03:21:43.057Z,995.76
2018-09-21T03:22:33.546Z,995.79
2018-09-21T03:23:39.798Z,995.82
2018-09-21T03:24:48.409Z,995.81
2018-09-21T03:25:59.272Z,995.74
2018-09-21T03:28:18.949Z,995.68
2018-09-21T03:30:21.528Z,995.62
2018-09-21T03:31:31.677Z,995.60
2018-09-21T03:32:28.409Z,995.56
2018-09-21T03:33:38.860Z,995.50
2018-09-21T03:34:39.074Z,995.41
2018-09-21T03:35:50.658Z,995.43
2018-09-21T03:36:52.000Z,995.39
2018-09-21T03:38:02.862Z,995.43
2018-09-21T03:39:08.115Z,995.40
2018-09-21T03:40:11.793Z,995.36
2018-09-21T03:41:17.328Z,995.30
2018-09-21T03:42:27.167Z,995.26
2018-09-21T03:43:26.971Z,995.23
2018-09-21T03:44:32.509Z,995.19
2018-09-21T03:45:36.614Z,995.12
2018-09-21T03:47:59.468Z,995.02
2018-09-21T03:48:50.775Z,994.99
2018-09-21T03:50:04.918Z,994.95
2018-09-21T03:50:59.699Z,994.97
2018-09-21T03:52:17.835Z,995.01
2018-09-21T03:53:21.428Z,994.96
2018-09-21T03:54:29.016Z,994.95
2018-09-21T03:55:30.967Z,994.88
2018-09-21T03:56:39.067Z,994.86
2018-09-21T03:57:32.217Z,994.83
2018-09-21T03:58:50.451Z,994.84
2018-09-21T03:59:41.550Z,994.82
2018-09-21T04:01:56.110Z,994.68
2018-09-21T04:03:07.590Z,994.67
2018-09-21T04:04:10.771Z,994.61
2018-09-21T04:05:13.855Z,994.63
2018-09-21T04:07:26.160Z,994.62
2018-09-21T04:09:35.394Z,994.59
2018-09-21T04:10:49.739Z,994.53
2018-09-21T04:11:56.411Z,994.58
2018-09-21T04:12:59.489Z,994.53
2018-09-21T04:14:06.769Z,994.60
2018-09-21T04:14:56.946Z,994.56
2018-09-21T04:16:11.394Z,994.60
2018-09-21T04:17:24.410Z,994.52
2018-09-21T04:18:17.862Z,994.52
2018-09-21T04:19:33.544Z,994.45
2018-09-21T04:21:35.605Z,994.46
2018-09-21T04:22:41.452Z,994.40
2018-09-21T04:23:49.860Z,994.45
2018-09-21T04:24:46.084Z,994.42
2018-09-21T04:26:03.397Z,994.37
2018-09-21T04:27:02.791Z,994.34
2018-09-21T04:28:21.232Z,994.35
2018-09-21T04:29:18.989Z,994.30
2018-09-21T04:31:26.182Z,994.32
2018-09-21T04:32:34.066Z,994.36
2018-09-21T04:33:50.882Z,994.27
2018-09-21T04:34:33.879Z,994.29
2018-09-21T04:35:55.711Z,994.25
2018-09-21T04:36:55.711Z,994.36
2018-09-21T04:38:11.488Z,994.29
2018-09-21T04:39:05.868Z,994.31
2018-09-21T04:41:25.753Z,994.35
2018-09-21T04:42:21.463Z,994.29
2018-09-21T04:43:30.889Z,994.28
2018-09-21T04:44:33.672Z,994.35
2018-09-21T04:45:54.923Z,994.28
2018-09-21T04:46:41.463Z,994.32
2018-09-21T04:48:57.047Z,994.25
2018-09-21T04:51:06.491Z,994.23
2018-09-21T04:52:16.047Z,994.14
2018-09-21T04:53:19.408Z,994.00
2018-09-21T04:54:33.665Z,994.25
2018-09-21T04:56:38.995Z,994.17
2018-09-21T04:57:48.119Z,994.15
2018-09-21T04:59:48.549Z,994.27
2018-09-21T05:02:05.054Z,994.12
2018-09-21T05:03:19.399Z,994.13
2018-09-21T05:04:17.056Z,994.08
2018-09-21T05:05:12.252Z,994.03
2018-09-21T05:06:26.595Z,994.14
2018-09-21T05:08:33.681Z,993.90
2018-09-21T05:09:32.153Z,993.85
2018-09-21T05:12:01.052Z,993.95
2018-09-21T05:16:10.305Z,993.96
2018-09-21T05:18:21.493Z,993.84
2018-09-21T05:19:43.720Z,993.99
2018-09-21T05:20:33.791Z,993.97
2018-09-21T05:21:49.982Z,993.90
2018-09-21T05:22:53.267Z,993.93
2018-09-21T05:23:46.826Z,993.95
2018-09-21T05:25:02.500Z,993.88
2018-09-21T05:26:03.330Z,993.92
2018-09-21T05:27:29.152Z,993.95
2018-09-21T05:28:31.097Z,993.86
2018-09-21T05:29:19.129Z,993.87
2018-09-21T05:30:25.993Z,993.82
2018-09-21T05:31:33.480Z,993.82
2018-09-21T05:32:49.356Z,993.88
2018-09-21T05:33:39.432Z,993.87
2018-09-21T05:34:53.982Z,993.85
2018-09-21T05:35:53.681Z,993.90
2018-09-21T05:37:02.702Z,993.90
2018-09-21T05:38:07.424Z,993.89
2018-09-21T05:39:08.783Z,993.92
2018-09-21T05:41:34.075Z,993.87
2018-09-21T05:42:33.979Z,993.83
2018-09-21T05:43:23.746Z,993.84
2018-09-21T05:44:43.726Z,993.94
2018-09-21T05:45:49.571Z,993.85
2018-09-21T05:46:50.399Z,993.90
2018-09-21T05:48:05.977Z,993.74
2018-09-21T05:48:57.378Z,993.91
2018-09-21T05:50:16.545Z,993.83
2018-09-21T05:51:17.265Z,993.80
2018-09-21T05:52:23.005Z,993.78
2018-09-21T05:53:25.269Z,993.81
2018-09-21T05:54:33.468Z,993.91
2018-09-21T05:55:29.585Z,993.90
2018-09-21T05:56:50.895Z,993.85
2018-09-21T05:57:56.441Z,993.82
2018-09-21T05:59:10.982Z,993.72
2018-09-21T06:00:02.700Z,993.63
2018-09-21T06:00:55.744Z,993.68
2018-09-21T06:03:25.226Z,993.66
2018-09-21T06:04:13.726Z,993.56
2018-09-21T06:05:27.634Z,993.68
2018-09-21T06:06:38.186Z,993.64
2018-09-21T06:07:36.662Z,993.61
2018-09-21T06:09:01.857Z,993.63
2018-09-21T06:09:45.687Z,993.65
2018-09-21T06:10:46.925Z,993.64
2018-09-21T06:15:24.642Z,993.67
2018-09-21T06:16:19.230Z,993.58
2018-09-21T06:17:34.491Z,993.60
2018-09-21T06:18:25.797Z,993.63
2018-09-21T06:19:34.928Z,993.65
2018-09-21T06:20:38.821Z,993.61
2018-09-21T06:21:45.797Z,993.59
2018-09-21T06:22:46.490Z,993.59
2018-09-21T06:23:59.739Z,993.66
2018-09-21T06:24:52.587Z,993.52
2018-09-21T06:26:08.255Z,993.64
2018-09-21T06:27:27.721Z,993.60
2018-09-21T06:28:39.608Z,993.54
2018-09-21T06:29:22.415Z,993.53
2018-09-21T06:30:38.299Z,993.53
2018-09-21T06:32:45.492Z,993.63
2018-09-21T06:33:37.476Z,993.51
2018-09-21T06:34:53.389Z,993.60
2018-09-21T06:36:07.222Z,993.59
2018-09-21T06:36:59.757Z,993.52
2018-09-21T06:38:13.385Z,993.54
2018-09-21T06:39:17.490Z,993.58
2018-09-21T06:40:11.253Z,993.53
2018-09-21T06:41:24.369Z,993.59
2018-09-21T06:42:44.048Z,993.60
2018-09-21T06:43:35.548Z,993.59
2018-09-21T06:44:40.889Z,993.50
2018-09-21T06:45:43.962Z,993.53
2018-09-21T06:46:57.700Z,993.58
2018-09-21T06:47:59.751Z,993.62
2018-09-21T06:50:08.982Z,993.77
2018-09-21T06:51:14.317Z,993.74
2018-09-21T06:52:22.929Z,993.79
2018-09-21T06:54:51.007Z,993.81
2018-09-21T06:55:43.646Z,993.68
2018-09-21T06:56:42.019Z,993.77
2018-09-21T06:57:49.607Z,993.80
2018-09-21T06:59:13.670Z,993.74
2018-09-21T07:00:06.408Z,993.74
2018-09-21T07:01:10.818Z,993.79
2018-09-21T07:02:23.938Z,993.80
2018-09-21T07:03:35.515Z,993.71
2018-09-21T07:04:29.892Z,993.78
2018-09-21T07:06:32.165Z,993.71
2018-09-21T07:07:48.656Z,993.70
2018-09-21T07:08:59.313Z,993.67
2018-09-21T07:09:49.854Z,993.65
2018-09-21T07:11:17.255Z,993.61
2018-09-21T07:12:07.332Z,993.52
2018-09-21T07:13:20.447Z,993.62
2018-09-21T07:14:14.723Z,993.53
2018-09-21T07:17:23.115Z,993.60
2018-09-21T07:18:48.451Z,993.68
2018-09-21T07:19:49.483Z,993.68
2018-09-21T07:20:54.305Z,993.91
2018-09-21T07:21:54.111Z,993.95
2018-09-21T07:23:19.004Z,993.75
2018-09-21T07:24:10.103Z,993.67
2018-09-21T07:26:37.158Z,993.84
2018-09-21T07:27:11.156Z,993.85
2018-09-21T07:29:27.691Z,993.96
2018-09-21T07:33:00.453Z,993.99
2018-09-21T07:33:46.431Z,994.07
2018-09-21T07:36:08.571Z,994.01
2018-09-21T07:37:00.186Z,994.06
2018-09-21T07:38:14.113Z,994.05
2018-09-21T07:39:19.755Z,994.05
2018-09-21T07:40:25.704Z,993.97
2018-09-21T07:41:26.741Z,993.99
2018-09-21T07:42:47.860Z,993.89
2018-09-21T07:44:58.511Z,994.07
2018-09-21T07:46:56.684Z,994.13
2018-09-21T07:48:08.164Z,994.11
2018-09-21T07:49:05.846Z,994.12
2018-09-21T07:50:17.192Z,994.13
2018-09-21T07:51:18.124Z,994.20
2018-09-21T07:52:30.216Z,994.14
2018-09-21T07:53:42.312Z,994.25
2018-09-21T07:54:36.691Z,994.21
2018-09-21T07:55:52.464Z,994.22
2018-09-21T07:56:39.471Z,994.21
2018-09-21T07:57:52.484Z,994.20
2018-09-21T07:59:08.368Z,994.23
2018-09-21T08:00:14.007Z,994.07
2018-09-21T08:01:08.793Z,994.01
2018-09-21T08:02:12.182Z,994.02
2018-09-21T08:03:36.764Z,993.95
2018-09-21T08:04:29.196Z,993.97
2018-09-21T08:05:32.893Z,994.26
2018-09-21T08:06:35.049Z,994.18
2018-09-21T08:07:40.387Z,994.06
2018-09-21T08:08:42.341Z,994.11
2018-09-21T08:09:58.533Z,994.00
2018-09-21T08:10:50.245Z,994.08
2018-09-21T08:12:12.475Z,993.84
2018-09-21T08:13:09.825Z,993.71
2018-09-21T08:14:21.507Z,993.54
2018-09-21T08:15:34.315Z,993.66
2018-09-21T08:16:40.781Z,993.74
2018-09-21T08:17:28.907Z,993.89
2018-09-21T08:18:40.392Z,993.95
2018-09-21T08:19:41.415Z,993.89
2018-09-21T08:22:13.792Z,993.94
2018-09-21T08:23:20.969Z,993.89
2018-09-21T08:24:09.201Z,993.96
2018-09-21T08:25:00.107Z,993.95
2018-09-21T08:26:21.918Z,993.89
2018-09-21T08:27:13.636Z,993.90
2018-09-21T08:28:29.922Z,993.83
2018-09-21T08:30:37.420Z,993.83
2018-09-21T08:31:46.331Z,993.79
2018-09-21T08:32:52.074Z,993.72
2018-09-21T08:33:50.650Z,993.73
2018-09-21T08:34:58.541Z,993.73
2018-09-21T08:36:23.537Z,993.71
2018-09-21T08:37:13.831Z,993.73
2018-09-21T08:38:16.593Z,993.70
2018-09-21T08:39:30.422Z,993.70
2018-09-21T08:40:29.921Z,993.66
2018-09-21T08:41:38.633Z,993.68
2018-09-21T08:42:37.109Z,993.67
2018-09-21T08:43:43.365Z,993.54
2018-09-21T08:44:41.254Z,993.63
2018-09-21T08:46:59.466Z,993.63
2018-09-21T08:48:02.958Z,993.57
2018-09-21T08:48:55.599Z,993.58
2018-09-21T08:50:17.618Z,993.68
2018-09-21T08:51:24.083Z,993.66
2018-09-21T08:52:28.901Z,993.67
2018-09-21T08:53:41.609Z,993.74
2018-09-21T08:54:46.452Z,993.77
2018-09-21T08:55:40.607Z,993.81
2018-09-21T08:57:04.372Z,993.87
2018-09-21T08:57:58.850Z,993.92
2018-09-21T08:58:59.369Z,994.14
2018-09-21T09:00:17.299Z,994.25
2018-09-21T09:01:15.362Z,994.25
2018-09-21T09:02:19.262Z,994.48
2018-09-21T09:03:23.072Z,994.56
2018-09-21T09:04:25.932Z,994.62
2018-09-21T09:07:53.310Z,994.88
2018-09-21T09:08:56.290Z,995.07
2018-09-21T09:09:54.139Z,995.21
2018-09-21T09:11:13.811Z,995.28
2018-09-21T09:12:18.128Z,995.20
2018-09-21T09:12:59.079Z,995.44
2018-09-21T09:14:11.171Z,995.40
2018-09-21T09:15:18.664Z,995.43
2018-09-21T09:17:30.865Z,995.64
2018-09-21T09:18:37.422Z,995.68
2018-09-21T09:19:35.277Z,995.96
2018-09-21T09:20:41.226Z,995.90
2018-09-21T09:21:58.749Z,995.89
2018-09-21T09:22:53.335Z,996.06
2018-09-21T09:25:33.882Z,996.22
2018-09-21T09:26:39.374Z,996.24
2018-09-21T09:28:37.798Z,996.48
2018-09-21T09:29:43.296Z,996.52
2018-09-21T09:31:41.745Z,996.59
2018-09-21T09:32:47.234Z,996.57
2018-09-21T09:34:45.661Z,996.61
2018-09-21T09:35:51.149Z,996.69
2018-09-21T09:37:49.583Z,996.90
2018-09-21T09:38:55.081Z,996.91
2018-09-21T09:40:53.501Z,996.98
2018-09-21T09:41:59.006Z,997.03
2018-09-21T09:43:57.441Z,997.04
2018-09-21T09:45:02.942Z,996.98
2018-09-21T09:47:01.370Z,997.00
2018-09-21T09:48:06.868Z,997.06
2018-09-21T09:50:05.276Z,997.10
2018-09-21T09:51:10.787Z,997.15
2018-09-21T09:53:09.210Z,997.14
2018-09-21T09:54:14.719Z,997.17
2018-09-21T09:56:13.158Z,997.13
2018-09-21T09:57:18.637Z,997.14
2018-09-21T09:59:17.567Z,996.98
2018-09-21T10:00:23.050Z,996.85
2018-09-21T10:02:21.507Z,996.97
2018-09-21T10:03:26.988Z,997.06
2018-09-21T10:05:25.393Z,997.17
2018-09-21T10:06:30.904Z,997.25
2018-09-21T10:08:29.331Z,997.33
2018-09-21T10:09:34.820Z,997.24
2018-09-21T10:11:33.244Z,997.27
2018-09-21T10:12:38.740Z,997.33
2018-09-21T10:14:37.175Z,997.39
2018-09-21T10:15:42.661Z,997.34
2018-09-21T10:17:41.109Z,997.28
2018-09-21T10:18:46.598Z,997.28
2018-09-21T10:20:45.056Z,997.31
2018-09-21T10:21:50.535Z,997.33
2018-09-21T10:23:48.945Z,997.33
2018-09-21T10:24:54.490Z,997.31
2018-09-21T10:26:52.884Z,997.39
2018-09-21T10:27:58.516Z,997.41
2018-09-21T10:29:56.837Z,997.42
2018-09-21T10:31:02.310Z,997.46
2018-09-21T10:33:00.711Z,997.36
2018-09-21T10:34:06.201Z,997.31
2018-09-21T10:36:04.642Z,997.34
2018-09-21T10:37:10.157Z,997.30
2018-09-21T10:39:08.555Z,997.26
2018-09-21T10:40:14.178Z,997.30
2018-09-21T10:42:12.531Z,997.29
2018-09-21T10:43:17.985Z,997.37
2018-09-21T10:45:16.489Z,997.35
2018-09-21T10:46:21.995Z,997.31
2018-09-21T10:48:20.417Z,997.41
2018-09-21T10:49:25.910Z,997.39
2018-09-21T10:51:24.427Z,997.34
2018-09-21T10:52:29.944Z,997.34
2018-09-21T10:54:28.461Z,997.40
2018-09-21T10:55:33.960Z,997.39
2018-09-21T10:57:32.466Z,997.34
2018-09-21T10:58:37.978Z,997.35
2018-09-21T11:00:36.540Z,997.36
2018-09-21T11:01:41.996Z,997.36
2018-09-21T11:03:40.405Z,997.33
2018-09-21T11:04:45.912Z,997.34
2018-09-21T11:06:44.431Z,997.30
2018-09-21T11:07:49.933Z,997.35
2018-09-21T11:09:48.459Z,997.33
2018-09-21T11:10:53.951Z,997.30
2018-09-21T11:12:52.464Z,997.21
2018-09-21T11:13:57.973Z,997.30
2018-09-21T11:15:56.497Z,997.34
2018-09-21T11:17:01.990Z,997.36
2018-09-21T11:19:00.517Z,997.46
2018-09-21T11:20:06.017Z,997.43
2018-09-21T11:22:04.451Z,997.36
2018-09-21T11:23:09.941Z,997.41
2018-09-21T11:25:08.453Z,997.28
2018-09-21T11:26:13.957Z,997.31
2018-09-21T11:28:12.467Z,997.36
2018-09-21T11:29:17.973Z,997.29
2018-09-21T11:31:16.509Z,997.33
2018-09-21T11:32:21.995Z,997.33
2018-09-21T11:34:20.522Z,997.37
2018-09-21T11:35:26.013Z,997.39
2018-09-21T11:37:24.540Z,997.49
2018-09-21T11:38:30.041Z,997.55
2018-09-21T11:40:28.572Z,997.60
2018-09-21T11:41:34.065Z,997.56
2018-09-21T11:43:32.558Z,997.59
2018-09-21T11:44:38.070Z,997.62
2018-09-21T11:46:36.616Z,997.65
2018-09-21T11:47:42.130Z,997.62
2018-09-21T11:49:40.628Z,997.65
2018-09-21T11:50:46.117Z,997.77
2018-09-21T11:52:44.626Z,997.78
2018-09-21T11:53:50.136Z,997.71
2018-09-21T11:55:48.660Z,997.79
2018-09-21T11:56:54.159Z,997.85
2018-09-21T11:58:52.691Z,997.82
2018-09-21T11:59:58.187Z,997.85
2018-09-21T12:01:56.764Z,997.80
2018-09-21T12:03:02.202Z,997.73
2018-09-21T12:05:00.732Z,997.75
2018-09-21T12:06:06.218Z,997.72
2018-09-21T12:08:04.738Z,997.74
2018-09-21T12:09:10.240Z,997.72
2018-09-21T12:11:09.217Z,997.72
2018-09-21T12:12:14.690Z,997.72
2018-09-21T12:14:13.191Z,997.73
2018-09-21T12:15:18.699Z,997.75
2018-09-21T12:17:17.210Z,997.79
2018-09-21T12:18:22.710Z,997.76
2018-09-21T12:20:21.221Z,997.80
2018-09-21T12:21:26.746Z,997.86
2018-09-21T12:23:25.256Z,997.85
2018-09-21T12:24:30.751Z,997.91
2018-09-21T12:26:29.260Z,997.93
2018-09-21T12:27:34.767Z,997.89
2018-09-21T12:29:33.291Z,997.90
2018-09-21T12:30:38.792Z,997.97
2018-09-21T12:32:37.311Z,997.93
2018-09-21T12:33:42.809Z,998.06
2018-09-21T12:35:41.320Z,998.06
2018-09-21T12:36:46.837Z,998.05
2018-09-21T12:38:45.361Z,998.07
2018-09-21T12:39:50.858Z,998.02
2018-09-21T12:41:49.363Z,998.00
2018-09-21T12:42:54.872Z,998.11
2018-09-21T12:44:53.394Z,998.12
2018-09-21T12:45:58.889Z,998.20
2018-09-21T12:47:57.415Z,998.20
2018-09-21T12:49:02.914Z,998.23
2018-09-21T12:51:01.566Z,998.31
2018-09-21T12:52:06.930Z,998.27
2018-09-21T12:54:05.465Z,998.27
2018-09-21T12:55:10.952Z,998.34
2018-09-21T12:57:09.474Z,998.30
2018-09-21T12:58:15.093Z,998.32
2018-09-21T13:00:13.511Z,998.39
2018-09-21T13:01:18.991Z,998.34
2018-09-21T13:03:17.523Z,998.35
2018-09-21T13:04:23.018Z,998.49
2018-09-21T13:06:21.592Z,998.50
2018-09-21T13:07:27.039Z,998.53
2018-09-21T13:09:25.567Z,998.56
2018-09-21T13:10:31.066Z,998.61
2018-09-21T13:12:29.569Z,998.60
2018-09-21T13:13:35.074Z,998.59
2018-09-21T13:15:33.595Z,998.67
2018-09-21T13:16:39.094Z,998.72
2018-09-21T13:18:37.608Z,998.71
2018-09-21T13:19:43.129Z,998.77
2018-09-21T13:21:41.645Z,998.82
2018-09-21T13:22:47.145Z,998.80
2018-09-21T13:24:45.642Z,998.69
2018-09-21T13:25:51.157Z,998.74
2018-09-21T13:27:49.693Z,998.81
2018-09-21T13:28:55.172Z,998.92
2018-09-21T13:30:53.694Z,998.91
2018-09-21T13:31:59.193Z,998.95
2018-09-21T13:33:57.733Z,999.04
2018-09-21T13:35:03.213Z,998.98
2018-09-21T13:37:01.734Z,999.07
2018-09-21T13:38:07.234Z,999.19
2018-09-21T13:40:05.756Z,999.16
2018-09-21T13:41:11.257Z,999.21
2018-09-21T13:43:09.756Z,999.19
2018-09-21T13:44:15.269Z,999.16
2018-09-21T13:46:13.793Z,999.14
2018-09-21T13:47:19.289Z,999.18
2018-09-21T13:49:17.826Z,999.17
2018-09-21T13:50:23.312Z,999.33
2018-09-21T13:52:22.240Z,999.33
2018-09-21T13:53:27.756Z,999.35
2018-09-21T13:55:26.251Z,999.38
2018-09-21T13:56:31.758Z,999.34
2018-09-21T13:58:30.276Z,999.39
2018-09-21T13:59:35.785Z,999.33
2018-09-21T14:01:34.301Z,999.37
2018-09-21T14:02:39.802Z,999.31
2018-09-21T14:04:38.324Z,999.25
2018-09-21T14:05:43.823Z,999.26
2018-09-21T14:07:42.336Z,999.41
2018-09-21T14:08:47.843Z,999.50
2018-09-21T14:10:46.350Z,999.45
2018-09-21T14:11:51.865Z,999.49
2018-09-21T14:13:50.383Z,999.40
2018-09-21T14:14:55.880Z,999.42
2018-09-21T14:16:54.398Z,999.46
2018-09-21T14:17:59.906Z,999.52
2018-09-21T14:19:58.417Z,999.53
2018-09-21T14:21:03.926Z,999.60
2018-09-21T14:23:02.440Z,999.59
2018-09-21T14:24:07.942Z,999.64
2018-09-21T14:26:06.465Z,999.63
2018-09-21T14:27:11.964Z,999.60
2018-09-21T14:29:10.567Z,999.63
2018-09-21T14:30:15.974Z,999.73
2018-09-21T14:32:14.503Z,999.59
2018-09-21T14:33:20.002Z,999.66
2018-09-21T14:35:18.517Z,999.63
2018-09-21T14:36:24.026Z,999.69
2018-09-21T14:38:22.551Z,999.63
2018-09-21T14:39:28.053Z,999.67
2018-09-21T14:41:26.575Z,999.69
2018-09-21T14:42:32.069Z,999.79
2018-09-21T14:44:30.601Z,999.87
2018-09-21T14:45:36.092Z,999.91
2018-09-21T14:47:34.594Z,999.87
2018-09-21T14:48:40.111Z,999.90
2018-09-21T14:49:45.622Z,999.87
2018-09-21T14:50:51.135Z,1000.02
2018-09-21T14:51:56.652Z,1000.01
2018-09-21T14:53:02.196Z,999.92
2018-09-21T14:54:07.683Z,999.90
2018-09-21T14:55:13.202Z,999.94
2018-09-21T14:56:18.709Z,999.90
2018-09-21T14:57:24.225Z,1000.02
2018-09-21T14:58:29.739Z,999.96
2018-09-21T14:59:35.252Z,1000.08
2018-09-21T15:00:40.771Z,1000.08
2018-09-21T15:01:46.282Z,1000.09
2018-09-21T15:02:51.795Z,1000.12
2018-09-21T15:03:57.311Z,1000.16
2018-09-21T15:05:02.826Z,1000.15
2018-09-21T15:06:08.344Z,1000.19
2018-09-21T15:07:13.858Z,1000.18
2018-09-21T15:08:19.432Z,1000.25
2018-09-21T15:09:24.894Z,1000.28
2018-09-21T15:10:30.398Z,1000.19
2018-09-21T15:11:35.925Z,1000.21
2018-09-21T15:12:41.427Z,1000.30
2018-09-21T15:13:46.945Z,1000.31
2018-09-21T15:14:52.459Z,1000.30
2018-09-21T15:15:57.987Z,1000.14
2018-09-21T15:17:03.489Z,1000.26
2018-09-21T15:18:09.002Z,1000.25
2018-09-21T15:19:14.516Z,1000.24
2018-09-21T15:20:20.035Z,1000.24
2018-09-21T15:21:25.548Z,1000.27
2018-09-21T15:22:31.061Z,1000.36
2018-09-21T15:23:36.573Z,1000.28
2018-09-21T15:24:42.108Z,1000.30
2018-09-21T15:25:47.604Z,1000.34
2018-09-21T15:26:53.134Z,1000.36
2018-09-21T15:27:58.634Z,1000.35
2018-09-21T15:29:04.161Z,1000.48
2018-09-21T15:30:09.666Z,1000.49
2018-09-21T15:31:15.187Z,1000.48
2018-09-21T15:32:20.701Z,1000.51
2018-09-21T15:33:26.217Z,1000.47
2018-09-21T15:34:31.730Z,1000.47
2018-09-21T15:35:37.244Z,1000.47
2018-09-21T15:36:42.765Z,1000.52
2018-09-21T15:37:48.281Z,1000.37
2018-09-21T15:38:53.806Z,1000.46
2018-09-21T15:39:59.305Z,1000.51
2018-09-21T15:41:04.833Z,1000.55
2018-09-21T15:42:10.352Z,1000.56
2018-09-21T15:43:15.901Z,1000.51
2018-09-21T15:44:21.373Z,1000.54
2018-09-21T15:45:26.882Z,1000.59
2018-09-21T15:46:32.402Z,1000.61
2018-09-21T15:47:37.922Z,1000.54
2018-09-21T15:48:43.438Z,1000.49
2018-09-21T15:49:48.944Z,1000.46
2018-09-21T15:50:54.467Z,1000.57
2018-09-21T15:51:59.979Z,1000.55
2018-09-21T15:53:05.492Z,1000.61
2018-09-21T15:54:11.011Z,1000.63
2018-09-21T15:55:16.523Z,1000.69
2018-09-21T15:56:22.048Z,1000.67
2018-09-21T15:57:27.568Z,1000.61
2018-09-21T15:58:33.072Z,1000.70
2018-09-21T15:59:38.584Z,1000.66
2018-09-21T16:00:44.101Z,1000.67
2018-09-21T16:01:49.628Z,1000.69
2018-09-21T16:02:55.137Z,1000.72
2018-09-21T16:04:00.647Z,1000.76
2018-09-21T16:05:06.165Z,1000.75
2018-09-21T16:06:11.677Z,1000.72
2018-09-21T16:07:17.195Z,1000.72
2018-09-21T16:08:22.713Z,1000.75
2018-09-21T16:09:28.221Z,1000.66
2018-09-21T16:10:33.734Z,1000.69
2018-09-21T16:11:39.259Z,1000.72
2018-09-21T16:12:44.772Z,1000.79
2018-09-21T16:13:50.283Z,1000.71
2018-09-21T16:14:55.805Z,1000.82
2018-09-21T16:16:01.313Z,1000.78
2018-09-21T16:17:06.829Z,1000.74
2018-09-21T16:18:12.353Z,1000.76
2018-09-21T16:19:17.861Z,1000.72
2018-09-21T16:20:23.375Z,1000.85